METAR Data
IDs: Format: Raw Decoded Include TAF

Data at: 2304 UTC 10 May 2021

K2V5 102255Z AUTO 07012G18KT 10SM RA OVC022 06/06 A3017 RMK AO2 P0001
K2V5 102235Z AUTO 07012G21KT 7SM -RA BKN019 OVC027 06/05 A3016 RMK AO2 P0001
K2V5 102215Z AUTO 04016KT 10SM RA SCT012 BKN019 OVC025 06/04 A3017 RMK AO2
K2V5 102155Z AUTO 04015KT 10SM DZ SCT010 BKN025 OVC055 07/05 A3017 RMK AO2
K2V5 102135Z AUTO 04012G15KT 10SM SCT042 SCT048 OVC055 07/04 A3016 RMK AO2
K2V5 102115Z AUTO 08008KT 10SM DZ SCT028 SCT034 OVC045 07/04 A3015 RMK AO2
K2V5 102055Z AUTO 10008KT 10SM -RA SCT026 BKN031 OVC055 07/03 A3015 RMK AO2
K2V5 102035Z AUTO 10010G17KT 10SM -RA BKN024 BKN030 OVC037 07/03 A3015 RMK AO2
K2V5 102015Z AUTO 10005KT 10SM BKN024 BKN030 OVC050 07/03 A3015 RMK AO2
K2V5 101955Z AUTO 14004KT 10SM -DZ BKN024 OVC037 07/03 A3015 RMK AO2
K2V5 101935Z AUTO 14003KT 10SM -RA SCT022 OVC029 07/03 A3016 RMK AO2
K2V5 101915Z AUTO 11005KT 10SM -DZ BKN031 BKN039 OVC048 08/02 A3016 RMK AO2
K2V5 101855Z AUTO 12007KT 10SM SCT050 OVC065 08/01 A3016 RMK AO2
K2V5 101835Z AUTO 10009KT 10SM OVC065 08/00 A3015 RMK AO2
K2V5 101815Z AUTO 12010G15KT 10SM SCT046 SCT050 OVC065 08/00 A3016 RMK AO2
K2V5 101755Z AUTO 13010KT 10SM SCT037 BKN046 OVC065 08/00 A3017 RMK AO2
K2V5 101735Z AUTO 13009G14KT 10SM BKN039 BKN047 OVC060 08/01 A3017 RMK AO2
K2V5 101715Z AUTO 15006KT 10SM SCT035 SCT042 OVC060 09/M01 A3017 RMK AO2
K2V5 101655Z AUTO 12010KT 10SM BKN037 OVC048 09/00 A3017 RMK AO2
K2V5 101635Z AUTO 11011KT 10SM SCT035 OVC050 10/00 A3017 RMK AO2
K2V5 101615Z AUTO 12013G17KT 10SM SCT033 SCT042 OVC050 09/00 A3017 RMK AO2
K2V5 101555Z AUTO 13010G14KT 10SM SCT045 OVC050 08/00 A3017 RMK AO2
K2V5 101535Z AUTO 14009KT 10SM SCT050 BKN065 OVC090 08/01 A3017 RMK AO2
K2V5 101515Z AUTO 17011KT 10SM OVC090 08/01 A3017 RMK AO2
K2V5 101455Z AUTO 16008KT 10SM SCT042 BKN048 OVC090 08/01 A3016 RMK AO2
K2V5 101435Z AUTO 18010KT 10SM OVC040 08/01 A3017 RMK AO2
K2V5 101415Z AUTO 19009KT 10SM BKN042 OVC100 08/02 A3017 RMK AO2
K2V5 101355Z AUTO 20009KT 10SM OVC100 08/02 A3017 RMK AO2
K2V5 101335Z AUTO 10SM BKN090 OVC110 07/02 A3016 RMK AO2
K2V5 101315Z AUTO 14004KT 10SM OVC090 07/03 A3016 RMK AO2
K2V5 101255Z AUTO 12004KT 10SM OVC100 06/03 A3016 RMK AO2
K2V5 101235Z AUTO 15004KT 10SM OVC100 06/03 A3016 RMK AO2
K2V5 101215Z AUTO 17005KT 10SM OVC090 06/03 A3015 RMK AO2
K2V5 101155Z AUTO 19007KT 10SM OVC090 06/03 A3015 RMK AO2
K2V5 101135Z AUTO 21005KT 10SM OVC090 06/03 A3014 RMK AO2
K2V5 101115Z AUTO 22004KT 10SM BKN090 05/03 A3014 RMK AO2
K2V5 101055Z AUTO 21004KT 10SM SCT100 06/03 A3014 RMK AO2
K2V5 101035Z AUTO 20005KT 10SM SCT090 SCT110 06/03 A3014 RMK AO2
K2V5 101015Z AUTO 20005KT 10SM SCT090 BKN120 06/03 A3014 RMK AO2
K2V5 100955Z AUTO 19004KT 10SM BKN100 OVC120 06/03 A3014 RMK AO2
K2V5 100935Z AUTO 19005KT 10SM OVC100 07/03 A3014 RMK AO2
K2V5 100915Z AUTO 17007KT 10SM OVC090 07/03 A3014 RMK AO2
K2V5 100855Z AUTO 17005KT 10SM SCT080 OVC090 07/02 A3013 RMK AO2
K2V5 100835Z AUTO 19005KT 10SM SCT080 OVC090 06/02 A3012 RMK AO2
K2V5 100815Z AUTO 17005KT 10SM OVC090 06/02 A3012 RMK AO2
K2V5 100755Z AUTO 00000KT 10SM OVC090 06/01 A3013 RMK AO2
K2V5 100735Z AUTO 10003KT 10SM OVC090 06/01 A3014 RMK AO2
K2V5 100715Z AUTO 00000KT 10SM OVC090 05/01 A3014 RMK AO2
K2V5 100655Z AUTO 00000KT 10SM BKN090 OVC120 05/01 A3014 RMK AO2 LTG DSNT S
K2V5 100635Z AUTO 08004KT 10SM SCT090 SCT120 05/01 A3014 RMK AO2
K2V5 100615Z AUTO 23003KT 10SM CLR 06/01 A3014 RMK AO2
K2V5 100555Z AUTO 00000KT 10SM CLR 06/01 A3014 RMK AO2
K2V5 100535Z AUTO 24003KT 10SM SCT120 06/01 A3014 RMK AO2
K2V5 100515Z AUTO 23004KT 10SM SCT120 06/01 A3014 RMK AO2
K2V5 100455Z AUTO 23003KT 10SM SCT120 07/01 A3014 RMK AO2
K2V5 100435Z AUTO 18004KT 10SM CLR 07/01 A3013 RMK AO2
K2V5 100415Z AUTO 18004KT 10SM CLR 07/01 A3012 RMK AO2
K2V5 100355Z AUTO 18006KT 10SM CLR 07/01 A3013 RMK AO2
K2V5 100335Z AUTO 20005KT 10SM CLR 08/01 A3013 RMK AO2
K2V5 100315Z AUTO 18004KT 10SM SCT055 08/00 A3012 RMK AO2
K2V5 100255Z AUTO 19007KT 10SM SCT055 09/01 A3012 RMK AO2
K2V5 100235Z AUTO 17008KT 10SM CLR 10/00 A3012 RMK AO2
K2V5 100215Z AUTO 17008KT 10SM SCT065 SCT120 10/00 A3010 RMK AO2
K2V5 100155Z AUTO 17007KT 10SM SCT065 10/00 A3010 RMK AO2
K2V5 100135Z AUTO 00000KT 10SM BKN065 11/00 A3010 RMK AO2
K2V5 100115Z AUTO 10004KT 10SM SCT065 BKN080 11/M01 A3009 RMK AO2
K2V5 100055Z AUTO 17006KT 10SM SCT065 BKN080 OVC090 12/M01 A3008 RMK AO2
K2V5 100035Z AUTO 19007KT 10SM SCT065 OVC100 12/M01 A3008 RMK AO2
K2V5 100015Z AUTO 20004KT 10SM SCT065 SCT090 OVC110 12/M01 A3007 RMK AO2
K2V5 092355Z AUTO 12003KT 10SM SCT065 BKN110 13/M02 A3007 RMK AO2
K2V5 092335Z AUTO 14003KT 10SM BKN100 13/M03 A3006 RMK AO2
K2V5 092315Z AUTO 06007KT 10SM SCT060 BKN090 13/M03 A3006 RMK AO2
K2V5 092255Z AUTO 00000KT 10SM SCT070 BKN080 12/M04 A3005 RMK AO2
K2V5 092235Z AUTO 00000KT 10SM BKN065 BKN080 13/M03 A3005 RMK AO2
K2V5 092215Z AUTO 06004KT 10SM OVC065 13/M03 A3006 RMK AO2
K2V5 092155Z AUTO 00000KT 10SM BKN070 BKN075 OVC090 13/M03 A3006 RMK AO2
K2V5 092135Z AUTO 00000KT 10SM SCT060 BKN090 14/M03 A3006 RMK AO2
K2V5 092115Z AUTO 02005KT 10SM SCT060 SCT090 15/M02 A3006 RMK AO2
K2V5 092055Z AUTO 06005G14KT 010V160 10SM SCT060 SCT090 14/M02 A3007 RMK AO2
K2V5 092035Z AUTO 00000KT 10SM SCT055 BKN090 14/M02 A3007 RMK AO2
K2V5 092015Z AUTO 09003G16KT 10SM SCT055 SCT090 13/M02 A3007 RMK AO2
K2V5 091955Z AUTO 04011G22KT 10SM CLR 14/M01 A3007 RMK AO2
K2V5 091935Z AUTO 06004G14KT 10SM SCT110 13/00 A3008 RMK AO2
K2V5 091915Z AUTO 00000KT 10SM SCT110 13/00 A3009 RMK AO2
K2V5 091855Z AUTO 03006G16KT 10SM CLR 12/00 A3010 RMK AO2
K2V5 091835Z AUTO 04008G17KT 10SM BKN110 12/00 A3010 RMK AO2
K2V5 091815Z AUTO 36008G18KT 10SM SCT100 BKN110 11/00 A3011 RMK AO2
K2V5 091755Z AUTO 02008G16KT 10SM BKN100 BKN120 11/00 A3012 RMK AO2
K2V5 091735Z AUTO 36004KT 10SM BKN100 11/00 A3013 RMK AO2
K2V5 091715Z AUTO 03004KT 10SM SCT031 OVC100 10/00 A3014 RMK AO2
K2V5 091655Z AUTO 02009KT 10SM SCT027 OVC100 10/00 A3014 RMK AO2
K2V5 091635Z AUTO 04008KT 10SM SCT027 OVC100 09/00 A3014 RMK AO2
K2V5 091615Z AUTO 36008KT 10SM BKN025 OVC110 08/00 A3014 RMK AO2
K2V5 091555Z AUTO 03013KT 10SM OVC023 07/00 A3012 RMK AO2
K2V5 091535Z AUTO 36010G14KT 10SM BKN021 OVC027 07/00 A3012 RMK AO2
K2V5 091515Z AUTO 01008G15KT 10SM OVC019 07/01 A3014 RMK AO2
K2V5 091455Z AUTO 02009KT 10SM BKN017 OVC110 07/01 A3014 RMK AO2
K2V5 091435Z AUTO 01010G14KT 10SM SCT017 OVC110 05/00 A3012 RMK AO2
K2V5 091415Z AUTO 36013G16KT 10SM SCT015 SCT110 07/01 A3012 RMK AO2
K2V5 091355Z AUTO 01012KT 10SM SCT017 BKN100 06/01 A3012 RMK AO2
K2V5 091335Z AUTO 36012KT 10SM SCT017 BKN100 05/00 A3012 RMK AO2
K2V5 091315Z AUTO 36012G15KT 10SM CLR 05/01 A3011 RMK AO2
K2V5 091255Z AUTO 35009KT 10SM SCT090 05/01 A3010 RMK AO2
K2V5 091235Z AUTO 35008KT 10SM OVC090 04/01 A3009 RMK AO2
K2V5 091215Z AUTO 35008KT 10SM OVC090 03/01 A3008 RMK AO2
K2V5 091155Z AUTO 35006KT 10SM OVC090 03/01 A3007 RMK AO2
K2V5 091135Z AUTO 36007KT 10SM BKN090 02/00 A3006 RMK AO2
K2V5 091115Z AUTO 34006KT 10SM CLR 02/00 A3005 RMK AO2